Terminal Aerodrome Forecast
Issued by NWS

Home | Current Version | Previous Version | Text Only | Print | Product List | Glossary On
Versions: 1 2 3 4 5 6 7 8 9 10 11 12 13 14 15
000
FTUS45 KTFX 032343
TAFGTF
TAF
KGTF 032343Z 0400/0424 35010KT P6SM -RA SCT035 BKN060
     FM040400 02006KT 5SM -RA BR SCT025 BKN050
     FM042000 05008KT P6SM VCSH SCT040 BKN070=

USA.gov is the U.S. government's official web portal to all federal, state and local government web resources and services.